Time;durP1;ratioP1;P1;durP2;ratioP2;P2;SDS_P1;SDS_P2;PMS_P1;PMS_P2;Temp;Humidity;BMP_temperature;BMP_pressure;BME280_temperature;BME280_humidity;BME280_pressure;Samples;Min_cycle;Max_cycle;Signal;HPM_P1;HPM_P2
2023/01/18 00:01:40;;;;;;;11.90;7.15;;;-0.80;99.90;;;;;;5016506;28;20446;-64
2023/01/18 00:04:05;;;;;;;13.35;8.00;;;-0.80;99.90;;;;;;5030852;28;20037;-64
2023/01/18 00:06:31;;;;;;;14.80;8.25;;;-0.90;99.90;;;;;;5031286;28;20069;-63
2023/01/18 00:08:57;;;;;;;13.60;7.68;;;-0.90;99.90;;;;;;5021632;28;20046;-63
2023/01/18 00:11:22;;;;;;;13.77;7.82;;;-0.90;99.90;;;;;;5012178;28;20042;-64
2023/01/18 00:13:48;;;;;;;14.70;8.55;;;-0.90;99.90;;;;;;5032389;28;20037;-64
2023/01/18 00:16:17;;;;;;;16.70;8.57;;;-0.90;99.90;;;;;;5031074;28;20038;-64
2023/01/18 00:18:43;;;;;;;15.80;8.00;;;-0.90;99.90;;;;;;5013598;28;20141;-64
2023/01/18 00:21:11;;;;;;;16.95;8.05;;;-1.00;99.90;;;;;;5034052;28;20112;-64
2023/01/18 00:23:37;;;;;;;13.30;8.18;;;-1.00;99.90;;;;;;5034866;28;20033;-64
2023/01/18 00:26:08;;;;;;;13.48;8.25;;;-1.10;99.90;;;;;;5022578;28;20080;-64
2023/01/18 00:28:34;;;;;;;12.07;7.80;;;-1.10;99.90;;;;;;5022942;28;20044;-63
2023/01/18 00:31:00;;;;;;;15.77;8.40;;;-1.10;99.90;;;;;;5034002;28;20083;-64
2023/01/18 00:33:25;;;;;;;14.68;9.23;;;-1.20;99.90;;;;;;5023448;28;20033;-64
2023/01/18 00:36:00;;;;;;;14.38;8.77;;;-1.20;99.90;;;;;;5031481;28;20041;-63
2023/01/18 00:38:26;;;;;;;14.52;8.43;;;-1.20;99.90;;;;;;5033898;28;20040;-64
2023/01/18 00:40:52;;;;;;;17.23;9.65;;;-1.20;99.90;;;;;;5034268;28;20500;-64
2023/01/18 00:46:02;;;;;;;18.27;9.10;;;-1.20;99.90;;;;;;5026538;28;20412;-62
2023/01/18 00:48:28;;;;;;;16.58;9.07;;;-1.20;99.90;;;;;;5034015;28;20504;-63
2023/01/18 00:50:53;;;;;;;20.55;9.73;;;-1.20;99.90;;;;;;5023349;28;20041;-62
2023/01/18 00:53:19;;;;;;;18.90;9.38;;;-1.20;99.90;;;;;;5030723;28;20484;-63
2023/01/18 00:55:45;;;;;;;20.27;10.43;;;-1.20;99.90;;;;;;5033962;28;20206;-63
2023/01/18 00:58:11;;;;;;;19.67;9.93;;;-1.20;99.90;;;;;;5028528;28;21024;-64
2023/01/18 01:00:37;;;;;;;16.08;9.30;;;-1.10;99.90;;;;;;5016161;28;20127;-63
2023/01/18 01:03:03;;;;;;;17.90;8.93;;;-1.10;99.90;;;;;;5024923;28;20044;-63
2023/01/18 01:08:17;;;;;;;17.40;9.88;;;-1.10;99.90;;;;;;5023166;28;20052;-64
2023/01/18 01:10:47;;;;;;;19.33;10.15;;;-1.20;99.90;;;;;;5030543;28;20052;-63
2023/01/18 01:27:05;;;;;;;17.77;8.95;;;-1.40;99.90;;;;;;5025267;28;20514;-64
2023/01/18 01:29:31;;;;;;;18.52;10.55;;;-1.40;99.90;;;;;;5033481;28;20088;-63
2023/01/18 01:31:57;;;;;;;17.67;10.63;;;-1.40;99.90;;;;;;5032927;28;20124;-63
2023/01/18 01:34:22;;;;;;;17.88;10.52;;;-1.40;99.90;;;;;;5025081;28;20037;-64
2023/01/18 01:36:51;;;;;;;17.85;10.50;;;-1.40;99.90;;;;;;5032815;28;20120;-62
2023/01/18 01:39:17;;;;;;;19.15;11.30;;;-1.40;99.90;;;;;;5030227;28;20131;-64
2023/01/18 01:41:42;;;;;;;22.00;11.60;;;-1.40;99.90;;;;;;5018459;28;20068;-63
2023/01/18 01:44:17;;;;;;;20.05;10.32;;;-1.40;99.90;;;;;;5032459;28;20496;-64
2023/01/18 01:46:54;;;;;;;19.92;10.80;;;-1.40;99.90;;;;;;5030593;28;20052;-63
2023/01/18 01:49:31;;;;;;;21.08;10.63;;;-1.40;99.90;;;;;;5014123;28;20111;-63
2023/01/18 01:52:04;;;;;;;17.85;10.60;;;-1.40;99.90;;;;;;5031542;28;20609;-63
2023/01/18 01:54:39;;;;;;;19.17;10.55;;;-1.40;99.90;;;;;;5032937;28;20045;-62
2023/01/18 01:57:27;;;;;;;21.55;11.18;;;-1.40;99.90;;;;;;5013125;28;20037;-63
2023/01/18 01:59:59;;;;;;;18.77;10.82;;;-1.40;99.90;;;;;;5025916;28;20034;-62
2023/01/18 02:02:25;;;;;;;22.73;10.77;;;-1.30;99.90;;;;;;5032357;28;20099;-63
2023/01/18 02:04:54;;;;;;;20.27;11.45;;;-1.20;99.90;;;;;;5026093;28;20030;-64
2023/01/18 02:07:20;;;;;;;21.70;11.10;;;-1.20;99.90;;;;;;5020539;28;20041;-63
2023/01/18 02:09:47;;;;;;;22.15;11.20;;;-1.30;99.90;;;;;;5032277;28;20073;-62
2023/01/18 02:12:13;;;;;;;24.45;11.13;;;-1.20;99.90;;;;;;5027729;28;20384;-62
2023/01/18 02:14:39;;;;;;;18.20;11.55;;;-1.30;99.90;;;;;;5018249;28;20037;-64
2023/01/18 02:17:35;;;;;;;20.35;11.63;;;-1.30;99.90;;;;;;5031960;28;20033;-62
2023/01/18 02:20:29;;;;;;;18.77;11.23;;;-1.30;99.90;;;;;;5032170;28;20087;-64
2023/01/18 02:23:14;;;;;;;18.42;11.10;;;-1.40;99.90;;;;;;5027725;28;20045;-63
2023/01/18 02:25:49;;;;;;;19.85;10.85;;;-1.40;99.90;;;;;;5028657;28;20148;-64
2023/01/18 02:28:19;;;;;;;17.98;10.38;;;-1.60;99.90;;;;;;5032333;28;20087;-63
2023/01/18 02:31:14;;;;;;;17.27;10.15;;;-1.60;99.90;;;;;;5020374;28;20139;-63
2023/01/18 02:33:53;;;;;;;18.80;10.68;;;-1.70;99.90;;;;;;5030618;28;20121;-64
2023/01/18 02:36:40;;;;;;;20.63;11.15;;;-1.70;99.90;;;;;;5032110;28;20072;-64
2023/01/18 02:39:37;;;;;;;19.15;10.82;;;-1.80;99.90;;;;;;5024136;28;20061;-63
2023/01/18 02:47:40;;;;;;;20.20;10.60;;;-1.80;99.90;;;;;;5028288;28;20051;-63
2023/01/18 02:50:07;;;;;;;19.35;10.45;;;-1.80;99.90;;;;;;5026005;28;20042;-63
2023/01/18 02:52:40;;;;;;;21.20;11.45;;;-1.80;99.90;;;;;;5031627;28;20077;-64
2023/01/18 02:55:29;;;;;;;18.73;10.55;;;-1.70;99.90;;;;;;5031838;28;20053;-64
2023/01/18 02:58:00;;;;;;;18.65;11.07;;;-1.60;99.90;;;;;;5028690;28;20456;-63
2023/01/18 03:00:27;;;;;;;19.25;10.98;;;-1.50;99.90;;;;;;5031335;28;20522;-63
2023/01/18 03:02:57;;;;;;;18.75;10.30;;;-1.50;99.90;;;;;;5045856;28;20079;-63
2023/01/18 03:05:25;;;;;;;19.02;11.02;;;-1.50;99.90;;;;;;5018785;28;20514;-62
2023/01/18 03:08:05;;;;;;;19.38;10.93;;;-1.50;99.90;;;;;;5029930;28;20056;-64
2023/01/18 03:10:33;;;;;;;24.33;12.30;;;-1.50;99.90;;;;;;5031867;28;20077;-64
2023/01/18 03:13:03;;;;;;;17.05;11.15;;;-1.50;99.90;;;;;;5026987;28;20051;-64
2023/01/18 03:15:37;;;;;;;20.02;12.05;;;-1.40;99.90;;;;;;5012820;28;20038;-64
2023/01/18 03:18:58;;;;;;;18.38;10.02;;;-1.40;99.90;;;;;;5023043;28;20046;-64
2023/01/18 03:21:44;;;;;;;16.52;9.73;;;-1.40;99.90;;;;;;5019314;28;20555;-63
2023/01/18 03:24:12;;;;;;;19.45;9.90;;;-1.30;99.90;;;;;;5023573;28;20045;-63
2023/01/18 03:26:42;;;;;;;22.70;10.45;;;-1.40;99.90;;;;;;5031585;28;20499;-63
2023/01/18 03:35:13;;;;;;;20.73;10.80;;;-1.60;99.90;;;;;;5031507;28;20048;-63
2023/01/18 03:37:41;;;;;;;17.63;9.52;;;-1.70;99.90;;;;;;5016649;28;20038;-64
2023/01/18 03:40:09;;;;;;;18.58;10.88;;;-1.70;99.90;;;;;;5028016;28;20041;-63
2023/01/18 03:42:54;;;;;;;21.15;10.85;;;-1.70;99.90;;;;;;5030837;28;20037;-63
2023/01/18 03:45:29;;;;;;;18.40;11.25;;;-1.70;99.90;;;;;;5026021;28;20431;-64
2023/01/18 03:47:55;;;;;;;19.55;10.75;;;-1.70;99.90;;;;;;5020604;28;20535;-64
2023/01/18 03:50:34;;;;;;;19.42;11.25;;;-1.70;99.90;;;;;;5034000;28;20037;-64
2023/01/18 03:53:06;;;;;;;19.45;11.20;;;-1.70;99.90;;;;;;5030754;28;20491;-64
2023/01/18 03:55:49;;;;;;;21.02;11.70;;;-1.70;99.90;;;;;;5018749;28;20062;-64
2023/01/18 03:58:21;;;;;;;20.88;11.68;;;-1.70;99.90;;;;;;5027988;28;20069;-63
2023/01/18 04:00:47;;;;;;;20.13;11.65;;;-1.70;99.90;;;;;;5035216;28;20048;-63
2023/01/18 04:03:12;;;;;;;21.95;11.63;;;-1.70;99.90;;;;;;5026498;28;20037;-64
2023/01/18 04:05:38;;;;;;;20.20;12.55;;;-1.70;99.90;;;;;;5026217;28;20388;-62
2023/01/18 04:08:04;;;;;;;20.98;13.10;;;-1.60;99.90;;;;;;5034880;28;20048;-64
2023/01/18 04:10:29;;;;;;;21.77;13.30;;;-1.60;99.90;;;;;;5024642;28;20099;-62
2023/01/18 04:12:56;;;;;;;20.70;12.23;;;-1.50;99.90;;;;;;5032057;28;20518;-63
2023/01/18 04:15:22;;;;;;;25.77;14.50;;;-1.50;99.90;;;;;;5034901;28;20049;-63
2023/01/18 04:17:51;;;;;;;23.83;13.32;;;-1.50;99.90;;;;;;5034468;28;20057;-63
2023/01/18 04:20:17;;;;;;;23.02;12.27;;;-1.50;99.90;;;;;;5023704;28;20116;-63
2023/01/18 04:22:43;;;;;;;20.38;12.50;;;-1.50;99.90;;;;;;5023766;28;20117;-63
2023/01/18 04:25:09;;;;;;;21.00;12.95;;;-1.50;99.90;;;;;;5034485;28;20037;-63
2023/01/18 04:27:34;;;;;;;27.30;12.40;;;-1.50;99.90;;;;;;5027548;28;20037;-63
2023/01/18 04:30:00;;;;;;;21.45;12.85;;;-1.50;99.90;;;;;;5028330;28;20033;-63
2023/01/18 04:32:27;;;;;;;21.30;11.43;;;-1.50;99.90;;;;;;5033990;28;20458;-63
2023/01/18 04:34:53;;;;;;;28.23;12.85;;;-1.50;99.90;;;;;;5034533;28;20499;-63
2023/01/18 04:37:18;;;;;;;20.02;11.77;;;-1.50;99.90;;;;;;5031700;28;20052;-63
2023/01/18 04:39:46;;;;;;;26.05;14.73;;;-1.50;99.90;;;;;;5029675;28;20037;-63
2023/01/18 04:42:11;;;;;;;23.38;12.88;;;-1.50;99.90;;;;;;5033371;28;20048;-62
2023/01/18 04:44:37;;;;;;;27.15;12.70;;;-1.50;99.90;;;;;;5018244;28;20034;-63
2023/01/18 04:47:03;;;;;;;21.13;11.85;;;-1.50;99.90;;;;;;5016518;28;20033;-63
2023/01/18 04:49:28;;;;;;;21.90;11.98;;;-1.60;99.90;;;;;;5022487;28;20423;-63
2023/01/18 04:51:54;;;;;;;24.25;12.00;;;-1.60;99.90;;;;;;5033009;28;20526;-63
2023/01/18 04:54:19;;;;;;;20.98;12.45;;;-1.70;99.90;;;;;;5032678;28;20052;-63
2023/01/18 04:56:45;;;;;;;26.67;12.63;;;-1.70;99.90;;;;;;5032796;28;20083;-63
2023/01/18 04:59:14;;;;;;;17.92;10.68;;;-1.70;99.90;;;;;;5026846;28;20515;-63
2023/01/18 05:01:40;;;;;;;20.45;12.25;;;-1.70;99.90;;;;;;5022311;28;20396;-63
2023/01/18 05:04:06;;;;;;;23.13;12.02;;;-1.70;99.90;;;;;;5033452;28;20488;-63
2023/01/18 05:06:31;;;;;;;23.75;13.65;;;-1.70;99.90;;;;;;5020105;28;20117;-63
2023/01/18 05:08:57;;;;;;;26.88;13.70;;;-1.60;99.90;;;;;;5031954;28;20431;-63
2023/01/18 05:11:22;;;;;;;26.60;13.35;;;-1.50;99.90;;;;;;5032628;28;20052;-63
2023/01/18 05:13:48;;;;;;;22.67;11.98;;;-1.40;99.90;;;;;;5033491;28;20056;-63
2023/01/18 05:16:19;;;;;;;24.08;13.50;;;-1.40;99.90;;;;;;5020324;28;20045;-63
2023/01/18 05:18:45;;;;;;;24.77;14.07;;;-1.30;99.90;;;;;;5027559;28;20033;-63
2023/01/18 05:21:11;;;;;;;21.73;13.27;;;-1.30;99.90;;;;;;5032642;28;20052;-64
2023/01/18 05:23:40;;;;;;;20.75;13.15;;;-1.30;99.90;;;;;;5031614;28;20194;-63
2023/01/18 05:26:13;;;;;;;18.73;11.10;;;-1.30;99.90;;;;;;5026035;28;20036;-63
2023/01/18 05:28:39;;;;;;;27.55;13.63;;;-1.20;99.90;;;;;;5026333;28;20480;-63
2023/01/18 05:31:05;;;;;;;22.63;13.93;;;-1.20;99.90;;;;;;5032719;28;20055;-63
2023/01/18 05:33:30;;;;;;;24.35;13.85;;;-1.20;99.90;;;;;;5028912;28;20034;-63
2023/01/18 05:35:56;;;;;;;21.27;12.32;;;-1.20;99.90;;;;;;5026297;28;20454;-63
2023/01/18 05:38:22;;;;;;;20.83;11.70;;;-1.30;99.90;;;;;;5031839;28;20039;-63
2023/01/18 05:40:53;;;;;;;21.42;12.02;;;-1.30;99.90;;;;;;5032802;28;20389;-63
2023/01/18 05:43:24;;;;;;;25.02;13.20;;;-1.30;99.90;;;;;;5028981;28;20034;-63
2023/01/18 05:45:50;;;;;;;22.67;11.98;;;-1.40;99.90;;;;;;5017451;28;20038;-63
2023/01/18 05:48:15;;;;;;;20.17;9.80;;;-1.30;99.90;;;;;;4995076;28;20034;-63
2023/01/18 05:50:44;;;;;;;22.15;12.15;;;-1.40;99.90;;;;;;5018553;28;20570;-63
2023/01/18 05:53:11;;;;;;;19.55;12.20;;;-1.40;99.90;;;;;;5022200;28;20037;-64
2023/01/18 05:55:36;;;;;;;24.80;13.45;;;-1.40;99.90;;;;;;5029127;28;20029;-64
2023/01/18 05:58:02;;;;;;;22.45;12.40;;;-1.30;99.90;;;;;;5029316;28;20103;-64
2023/01/18 06:00:28;;;;;;;23.27;13.85;;;-1.30;99.90;;;;;;5023796;28;20070;-64
2023/01/18 06:02:54;;;;;;;22.77;12.30;;;-1.20;99.90;;;;;;5026775;28;20037;-64
2023/01/18 06:05:21;;;;;;;24.05;13.20;;;-1.20;99.90;;;;;;5028924;28;20130;-64
2023/01/18 06:07:46;;;;;;;27.27;13.05;;;-1.20;99.90;;;;;;5024935;28;20056;-64
2023/01/18 06:10:12;;;;;;;21.55;12.32;;;-1.30;99.90;;;;;;5028942;28;20037;-64
2023/01/18 06:12:38;;;;;;;19.40;11.13;;;-1.40;99.90;;;;;;5039844;28;20574;-63
2023/01/18 06:15:05;;;;;;;22.38;11.23;;;-1.40;99.90;;;;;;5036514;28;20045;-64
2023/01/18 06:17:31;;;;;;;22.42;11.90;;;-1.40;99.90;;;;;;5019875;28;20057;-63
2023/01/18 06:19:57;;;;;;;25.25;12.05;;;-1.50;99.90;;;;;;5028685;28;20049;-63
2023/01/18 06:22:23;;;;;;;19.35;11.35;;;-1.50;99.90;;;;;;5024900;28;20091;-63
2023/01/18 06:24:48;;;;;;;18.30;10.80;;;-1.60;99.90;;;;;;5016992;28;20117;-63
2023/01/18 06:27:14;;;;;;;21.67;11.15;;;-1.60;99.90;;;;;;5061153;22;20048;-63
2023/01/18 06:29:40;;;;;;;22.83;10.65;;;-1.70;99.90;;;;;;5011999;28;20058;-64
2023/01/18 06:32:06;;;;;;;20.52;12.68;;;-1.80;99.90;;;;;;5011109;28;20046;-64
2023/01/18 06:34:32;;;;;;;22.13;12.60;;;-1.80;99.90;;;;;;5020116;28;20407;-64
2023/01/18 06:36:58;;;;;;;24.88;12.57;;;-1.70;99.90;;;;;;5020583;28;20132;-64
2023/01/18 06:39:24;;;;;;;21.65;11.90;;;-1.70;99.90;;;;;;5017379;28;20466;-64
2023/01/18 06:41:49;;;;;;;25.15;13.27;;;-1.80;99.90;;;;;;5026591;28;20053;-64
2023/01/18 06:44:15;;;;;;;28.77;15.57;;;-1.80;99.90;;;;;;5024930;28;20034;-64
2023/01/18 06:46:43;;;;;;;26.40;13.27;;;-1.80;99.90;;;;;;5024123;28;20566;-64
2023/01/18 06:49:09;;;;;;;23.05;13.77;;;-1.80;99.90;;;;;;5019922;28;20055;-64
2023/01/18 06:51:35;;;;;;;25.25;13.55;;;-1.80;99.90;;;;;;5018087;28;20448;-64
2023/01/18 06:54:01;;;;;;;21.52;12.70;;;-1.80;99.90;;;;;;5012048;28;20109;-64
2023/01/18 06:56:28;;;;;;;28.40;14.35;;;-1.90;99.90;;;;;;5019502;28;20096;-64
2023/01/18 06:58:56;;;;;;;27.67;14.48;;;-1.90;99.90;;;;;;5013712;28;20042;-64
2023/01/18 07:01:22;;;;;;;24.73;15.65;;;-2.00;99.90;;;;;;5013695;28;20037;-63
2023/01/18 07:03:48;;;;;;;28.58;14.65;;;-1.90;99.90;;;;;;5019508;28;20099;-63
2023/01/18 07:06:14;;;;;;;27.40;14.73;;;-1.90;99.90;;;;;;5019662;28;20571;-63
2023/01/18 07:08:40;;;;;;;23.83;14.05;;;-1.90;99.90;;;;;;5019124;28;20083;-63
2023/01/18 07:11:08;;;;;;;24.00;14.00;;;-2.00;99.90;;;;;;5019476;28;20076;-63
2023/01/18 07:13:34;;;;;;;29.45;15.25;;;-2.00;99.90;;;;;;5028054;28;20579;-63
2023/01/18 07:16:01;;;;;;;27.83;15.43;;;-2.00;99.90;;;;;;5014881;28;20037;-63
2023/01/18 07:18:28;;;;;;;28.02;14.75;;;-2.00;99.90;;;;;;5018731;28;20569;-63
2023/01/18 07:21:02;;;;;;;25.08;15.05;;;-2.00;99.90;;;;;;5016003;28;20045;-63
2023/01/18 07:23:29;;;;;;;30.73;15.05;;;-2.10;99.90;;;;;;5017159;28;20484;-63
2023/01/18 07:26:02;;;;;;;27.23;14.98;;;-2.10;99.90;;;;;;5026450;28;20609;-63
2023/01/18 07:28:28;;;;;;;31.88;17.15;;;-2.10;99.90;;;;;;5027110;28;20057;-63
2023/01/18 07:30:54;;;;;;;26.98;15.43;;;-2.10;99.90;;;;;;5012354;28;20045;-63
2023/01/18 07:33:19;;;;;;;32.60;17.00;;;-2.10;99.90;;;;;;5014525;28;20041;-63
2023/01/18 07:35:45;;;;;;;26.98;14.30;;;-2.10;99.90;;;;;;5016728;28;20045;-63
2023/01/18 07:38:11;;;;;;;32.15;15.95;;;-2.10;99.90;;;;;;5028051;28;20443;-63
2023/01/18 07:40:36;;;;;;;34.47;18.25;;;-2.00;99.90;;;;;;5016498;28;20520;-63
2023/01/18 07:43:02;;;;;;;26.40;14.80;;;-2.00;99.90;;;;;;5014271;28;20042;-63
2023/01/18 07:45:29;;;;;;;31.33;16.17;;;-1.90;99.90;;;;;;5022247;28;20053;-63
2023/01/18 07:47:54;;;;;;;27.48;15.90;;;-1.90;99.90;;;;;;5019431;28;20041;-63
2023/01/18 07:50:21;;;;;;;30.73;15.88;;;-1.80;99.90;;;;;;5019934;28;20570;-63
2023/01/18 07:52:47;;;;;;;30.58;16.17;;;-1.90;99.90;;;;;;5018307;28;20046;-63
2023/01/18 07:55:13;;;;;;;33.53;17.35;;;-1.80;99.90;;;;;;5027573;28;20153;-63
2023/01/18 07:57:38;;;;;;;31.50;16.77;;;-1.70;99.90;;;;;;5015346;28;20026;-63
2023/01/18 08:00:07;;;;;;;30.48;17.30;;;-1.70;99.90;;;;;;5015448;28;20507;-63
2023/01/18 08:02:34;;;;;;;28.88;16.80;;;-1.60;99.90;;;;;;5022839;28;20113;-63
2023/01/18 08:04:59;;;;;;;29.65;16.48;;;-1.60;99.90;;;;;;5015937;28;20694;-63
2023/01/18 08:07:25;;;;;;;32.58;17.90;;;-1.60;99.90;;;;;;5024477;28;20038;-63
2023/01/18 08:09:50;;;;;;;32.22;16.73;;;-1.60;99.90;;;;;;5018816;28;20037;-63
2023/01/18 08:12:17;;;;;;;35.72;17.58;;;-1.60;99.90;;;;;;5024382;28;20519;-63
2023/01/18 08:14:44;;;;;;;34.72;16.85;;;-1.50;99.90;;;;;;5013618;28;20037;-63
2023/01/18 08:17:10;;;;;;;29.13;16.85;;;-1.60;99.90;;;;;;5017433;28;20483;-63
2023/01/18 08:19:36;;;;;;;30.60;17.02;;;-1.60;99.90;;;;;;5019873;28;20090;-63
2023/01/18 08:22:02;;;;;;;31.30;17.58;;;-1.50;99.90;;;;;;5017726;28;20071;-63
2023/01/18 08:24:28;;;;;;;32.92;16.25;;;-1.50;99.90;;;;;;5010510;28;20203;-63
2023/01/18 08:26:53;;;;;;;31.83;18.33;;;-1.50;99.90;;;;;;5022875;28;20604;-63
2023/01/18 08:29:19;;;;;;;29.75;16.60;;;-1.40;99.90;;;;;;5020901;28;20364;-63
2023/01/18 08:31:45;;;;;;;30.55;16.88;;;-1.40;99.90;;;;;;5023422;28;20095;-63
2023/01/18 08:34:11;;;;;;;29.45;16.02;;;-1.40;99.90;;;;;;5029696;28;20036;-64
2023/01/18 08:36:36;;;;;;;37.45;17.63;;;-1.40;99.90;;;;;;5019271;28;20423;-63
2023/01/18 08:39:02;;;;;;;36.13;17.73;;;-1.30;99.90;;;;;;5017549;28;20478;-64
2023/01/18 08:41:29;;;;;;;34.25;18.52;;;-1.30;99.90;;;;;;5018581;28;20034;-64
2023/01/18 08:43:55;;;;;;;31.48;16.27;;;-1.30;99.90;;;;;;5020583;28;20060;-63
2023/01/18 08:46:22;;;;;;;34.97;19.83;;;-1.30;99.90;;;;;;5019304;28;20100;-64
2023/01/18 08:48:52;;;;;;;33.55;18.25;;;-1.20;99.90;;;;;;5016967;28;20033;-63
2023/01/18 08:51:19;;;;;;;34.03;18.05;;;-1.20;99.90;;;;;;5010637;28;20083;-64
2023/01/18 08:53:45;;;;;;;36.67;17.35;;;-1.10;99.90;;;;;;5025722;28;20100;-64
2023/01/18 08:56:11;;;;;;;30.10;17.38;;;-1.10;99.90;;;;;;5018318;28;20042;-64
2023/01/18 08:58:37;;;;;;;33.15;18.58;;;-1.10;99.90;;;;;;5020775;28;20042;-62
2023/01/18 09:01:07;;;;;;;31.65;18.40;;;-1.00;99.90;;;;;;5029641;28;20044;-64
2023/01/18 09:03:33;;;;;;;36.65;18.98;;;-0.90;99.90;;;;;;5030225;28;20496;-64
2023/01/18 09:05:59;;;;;;;30.33;16.70;;;-0.90;99.90;;;;;;5015592;28;20136;-64
2023/01/18 09:08:25;;;;;;;34.50;17.98;;;-0.80;99.90;;;;;;5020973;28;20046;-66
2023/01/18 09:10:51;;;;;;;30.15;16.48;;;-0.70;99.90;;;;;;5027167;28;20557;-64
2023/01/18 09:13:17;;;;;;;33.40;17.85;;;-0.70;99.90;;;;;;5013578;28;20060;-65
2023/01/18 09:15:44;;;;;;;34.35;17.88;;;-0.70;99.90;;;;;;5020247;28;20577;-64
2023/01/18 09:18:09;;;;;;;29.70;17.02;;;-0.60;99.90;;;;;;5024983;28;20049;-63
2023/01/18 09:20:35;;;;;;;28.02;16.20;;;-0.60;99.90;;;;;;5024501;28;20025;-64
2023/01/18 09:23:06;;;;;;;31.52;17.17;;;-0.40;99.90;;;;;;5014764;28;20512;-64
2023/01/18 09:25:32;;;;;;;30.97;17.47;;;-0.40;99.90;;;;;;5012374;28;20901;-64
2023/01/18 09:27:58;;;;;;;30.52;17.25;;;-0.20;99.90;;;;;;5016298;28;20041;-64
2023/01/18 09:30:23;;;;;;;29.25;17.88;;;-0.10;99.90;;;;;;5023052;28;20103;-64
2023/01/18 09:32:49;;;;;;;30.15;17.65;;;0.10;99.90;;;;;;5014293;28;20046;-64
2023/01/18 09:35:17;;;;;;;27.88;17.67;;;0.20;99.90;;;;;;5017002;28;20054;-64
2023/01/18 09:37:44;;;;;;;25.55;15.30;;;0.40;99.90;;;;;;5015736;28;20155;-64
2023/01/18 09:40:18;;;;;;;25.70;15.65;;;0.30;99.90;;;;;;5018010;28;20041;-64
2023/01/18 09:42:46;;;;;;;29.27;17.35;;;0.40;99.90;;;;;;5008663;28;20408;-64
2023/01/18 09:45:32;;;;;;;24.92;17.00;;;0.50;99.90;;;;;;5014999;28;20042;-64
2023/01/18 09:48:15;;;;;;;25.42;15.75;;;0.60;99.90;;;;;;5022217;28;20041;-64
2023/01/18 09:50:43;;;;;;;23.95;15.35;;;0.70;99.90;;;;;;5026140;28;20053;-64
2023/01/18 09:53:26;;;;;;;25.17;15.23;;;0.90;99.90;;;;;;5028621;28;20562;-64
2023/01/18 09:56:06;;;;;;;22.98;15.95;;;0.90;99.90;;;;;;5015273;28;20052;-64
2023/01/18 09:58:46;;;;;;;23.33;14.30;;;1.00;99.90;;;;;;5017478;28;20037;-64
2023/01/18 10:01:16;;;;;;;24.90;13.68;;;1.10;99.90;;;;;;5016026;28;20041;-65
2023/01/18 10:03:53;;;;;;;24.00;12.25;;;1.10;99.90;;;;;;5016783;28;20144;-65
2023/01/18 10:06:42;;;;;;;25.17;13.52;;;1.10;99.90;;;;;;5018036;28;20037;-65
2023/01/18 10:09:14;;;;;;;21.25;13.38;;;1.10;99.90;;;;;;5015094;28;20042;-64
2023/01/18 10:11:55;;;;;;;19.05;12.95;;;1.20;99.90;;;;;;5014308;28;20073;-64
2023/01/18 10:14:32;;;;;;;19.55;12.27;;;1.20;99.90;;;;;;5018270;28;20048;-64
2023/01/18 10:17:03;;;;;;;25.73;13.00;;;1.30;99.90;;;;;;5013251;28;20104;-64
2023/01/18 10:19:31;;;;;;;22.85;12.90;;;1.30;99.90;;;;;;5012355;28;20602;-65
2023/01/18 10:22:18;;;;;;;19.90;11.90;;;1.40;99.90;;;;;;5017175;28;20034;-64
2023/01/18 10:25:13;;;;;;;20.50;12.98;;;1.50;99.90;;;;;;5017157;28;20088;-64
2023/01/18 10:28:09;;;;;;;19.60;12.10;;;1.50;99.90;;;;;;5012520;28;20095;-64
2023/01/18 10:30:39;;;;;;;20.15;12.77;;;1.40;99.90;;;;;;5018857;28;20053;-65
2023/01/18 10:33:27;;;;;;;22.88;13.48;;;1.50;99.90;;;;;;5013941;28;20049;-65
2023/01/18 10:35:59;;;;;;;22.75;12.60;;;1.60;99.90;;;;;;5007964;28;20494;-64
2023/01/18 10:38:27;;;;;;;21.02;12.60;;;1.60;99.90;;;;;;5020793;28;20055;-65
2023/01/18 10:40:56;;;;;;;17.05;11.65;;;1.70;99.90;;;;;;5025172;28;20052;-65
2023/01/18 10:43:24;;;;;;;18.85;11.85;;;1.80;99.90;;;;;;5027251;28;20049;-65
2023/01/18 10:45:52;;;;;;;20.70;13.15;;;1.80;99.90;;;;;;5018092;28;20055;-65
2023/01/18 10:48:23;;;;;;;19.98;12.57;;;1.90;99.90;;;;;;5015171;28;20054;-65
2023/01/18 10:50:52;;;;;;;19.48;12.27;;;2.00;99.90;;;;;;5024483;28;20049;-65
2023/01/18 10:53:31;;;;;;;19.02;11.77;;;2.00;99.90;;;;;;5012602;28;20045;-65
2023/01/18 10:56:27;;;;;;;17.08;10.43;;;2.10;99.90;;;;;;5014223;28;20072;-64
2023/01/18 10:59:01;;;;;;;17.65;11.38;;;2.20;99.90;;;;;;5013120;28;20088;-64
2023/01/18 11:01:32;;;;;;;18.33;12.25;;;2.20;99.90;;;;;;5022517;28;20045;-63
2023/01/18 11:04:14;;;;;;;16.63;10.65;;;2.30;99.90;;;;;;5018500;28;20037;-63
2023/01/18 11:06:52;;;;;;;15.80;9.82;;;2.50;99.90;;;;;;5016172;28;20052;-68
2023/01/18 11:09:46;;;;;;;20.60;10.15;;;2.50;99.90;;;;;;5006954;28;20046;-62
2023/01/18 11:12:32;;;;;;;17.05;10.93;;;2.60;99.90;;;;;;5014864;28;20565;-62
2023/01/18 11:15:15;;;;;;;17.00;10.05;;;2.60;99.90;;;;;;5026675;28;20103;-62
2023/01/18 11:17:53;;;;;;;19.05;10.77;;;2.70;99.90;;;;;;5019921;28;20419;-65
2023/01/18 11:20:20;;;;;;;13.75;8.85;;;2.70;99.90;;;;;;5015772;28;20099;-64
2023/01/18 11:23:01;;;;;;;18.90;11.00;;;2.70;99.90;;;;;;5017456;28;20045;-65
2023/01/18 11:25:39;;;;;;;16.83;10.35;;;2.80;99.90;;;;;;5017019;28;20696;-65
2023/01/18 11:28:15;;;;;;;15.32;8.98;;;2.90;99.90;;;;;;5011061;28;20053;-65
2023/01/18 11:30:49;;;;;;;18.95;10.63;;;2.90;99.90;;;;;;5010884;28;20053;-65
2023/01/18 11:33:18;;;;;;;14.45;9.73;;;2.90;99.90;;;;;;5005019;28;20483;-65
2023/01/18 11:35:44;;;;;;;12.73;7.93;;;3.00;99.90;;;;;;5020530;28;20042;-65
2023/01/18 11:38:17;;;;;;;14.95;8.68;;;3.10;99.90;;;;;;5020237;28;20046;-65
2023/01/18 11:40:43;;;;;;;13.70;9.02;;;3.10;99.90;;;;;;5014072;28;20947;-65
2023/01/18 11:43:18;;;;;;;16.02;9.45;;;3.20;99.90;;;;;;5015726;28;20041;-64
2023/01/18 11:45:58;;;;;;;15.30;9.80;;;3.30;99.90;;;;;;5021998;28;20056;-65
2023/01/18 11:48:48;;;;;;;22.13;9.43;;;3.30;99.90;;;;;;5021269;28;20084;-65
2023/01/18 11:51:48;;;;;;;13.90;8.48;;;3.40;99.90;;;;;;5016321;28;20041;-65
2023/01/18 11:54:26;;;;;;;12.85;8.57;;;3.50;99.90;;;;;;5014947;28;20726;-65
2023/01/18 11:56:55;;;;;;;13.60;8.70;;;3.50;99.90;;;;;;5024828;28;20696;-65
2023/01/18 11:59:23;;;;;;;14.93;9.43;;;3.50;99.90;;;;;;5016165;28;20040;-65
2023/01/18 12:02:17;;;;;;;15.77;9.20;;;3.60;99.90;;;;;;5016219;28;20095;-65
2023/01/18 12:05:24;;;;;;;12.75;8.05;;;3.60;99.90;;;;;;5024750;28;20049;-65
2023/01/18 12:08:09;;;;;;;13.55;7.88;;;3.80;99.90;;;;;;5026510;28;20509;-65
2023/01/18 12:11:00;;;;;;;10.10;7.18;;;3.80;99.90;;;;;;5019484;28;20132;-65
2023/01/18 12:13:48;;;;;;;16.35;8.65;;;3.80;99.90;;;;;;5011428;28;20549;-66
2023/01/18 12:16:19;;;;;;;13.10;8.70;;;3.90;99.90;;;;;;5017670;28;20049;-66
2023/01/18 12:18:56;;;;;;;12.52;6.40;;;4.00;99.90;;;;;;5021325;28;20070;-65
2023/01/18 12:21:35;;;;;;;13.10;7.50;;;4.00;99.90;;;;;;5030343;28;20577;-66
2023/01/18 12:24:27;;;;;;;15.07;7.38;;;4.00;99.90;;;;;;5028537;28;20123;-65
2023/01/18 12:26:59;;;;;;;12.50;7.72;;;4.00;99.90;;;;;;5071941;22;20658;-71
2023/01/18 12:29:38;;;;;;;11.75;7.80;;;4.00;99.90;;;;;;5081353;28;20127;-71
2023/01/18 12:32:29;;;;;;;10.93;6.72;;;4.00;99.90;;;;;;5078804;28;20035;-71
2023/01/18 12:34:55;;;;;;;12.52;7.50;;;4.00;99.90;;;;;;5080394;28;20040;-72
2023/01/18 12:37:35;;;;;;;14.68;7.75;;;4.10;99.90;;;;;;5083243;28;20056;-71
2023/01/18 12:40:15;;;;;;;12.43;7.50;;;4.10;99.90;;;;;;5072961;28;20045;-71
2023/01/18 12:42:59;;;;;;;13.38;7.75;;;4.10;99.90;;;;;;5062124;28;20406;-71
2023/01/18 12:45:39;;;;;;;14.80;7.28;;;4.10;99.90;;;;;;5058976;28;20149;-70
2023/01/18 12:48:31;;;;;;;12.80;7.10;;;4.20;99.90;;;;;;5056734;28;20040;-71
2023/01/18 12:50:59;;;;;;;11.30;7.55;;;4.20;99.90;;;;;;5064873;28;20044;-71
2023/01/18 12:53:49;;;;;;;12.57;8.18;;;4.20;99.90;;;;;;5076898;28;20043;-70
2023/01/18 12:56:32;;;;;;;11.30;7.47;;;4.20;99.90;;;;;;5064685;28;20072;-71
2023/01/18 12:59:07;;;;;;;10.07;6.53;;;4.20;99.90;;;;;;5059482;28;20619;-71
2023/01/18 13:01:41;;;;;;;12.85;8.07;;;4.20;99.90;;;;;;5063385;28;20072;-70
2023/01/18 13:04:43;;;;;;;14.15;8.20;;;4.10;99.90;;;;;;5062127;28;20040;-71
2023/01/18 13:07:14;;;;;;;11.25;7.65;;;4.20;99.90;;;;;;5063925;28;20673;-72
2023/01/18 13:09:45;;;;;;;12.10;7.30;;;4.20;99.90;;;;;;5068465;28;20040;-72
2023/01/18 13:12:12;;;;;;;13.60;7.20;;;4.20;99.90;;;;;;5068546;28;20446;-69
2023/01/18 13:15:13;;;;;;;11.52;8.07;;;4.30;99.90;;;;;;5061373;28;20032;-69
2023/01/18 13:17:52;;;;;;;12.25;7.70;;;4.30;99.90;;;;;;5058327;28;20098;-69
2023/01/18 13:20:34;;;;;;;14.65;7.80;;;4.40;99.90;;;;;;5068232;28;20503;-69
2023/01/18 13:23:13;;;;;;;;;;;4.40;99.90;;;;;;5061746;28;20537;-69
2023/01/18 13:26:05;;;;;;;13.27;7.68;;;4.30;99.90;;;;;;5065191;28;20360;-69